Time;durP1;ratioP1;P1;durP2;ratioP2;P2;SDS_P1;SDS_P2;PMS_P1;PMS_P2;Temp;Humidity;BMP_temperature;BMP_pressure;BME280_temperature;BME280_humidity;BME280_pressure;Samples;Min_cycle;Max_cycle;Signal;HPM_P1;HPM_P2
2022/09/30 00:01:38;;;;;;;19.47;17.57;;;;;;;;;;5092405;28;20586;-79
2022/09/30 00:04:10;;;;;;;19.03;17.20;;;;;;;;;;5092238;28;20213;-79
2022/09/30 00:06:39;;;;;;;19.17;17.40;;;;;;;;;;5091962;28;20207;-80
2022/09/30 00:09:08;;;;;;;20.20;18.17;;;;;;;;;;5091703;28;20207;-79
2022/09/30 00:11:38;;;;;;;20.47;18.40;;;;;;;;;;5092320;28;20246;-79
2022/09/30 00:14:11;;;;;;;19.90;17.90;;;;;;;;;;5096851;28;20201;-79
2022/09/30 00:16:39;;;;;;;21.43;18.83;;;;;;;;;;5112063;28;20206;-80
2022/09/30 00:19:09;;;;;;;21.13;18.97;;;;;;;;;;5111814;28;20206;-79
2022/09/30 00:21:37;;;;;;;25.37;22.53;;;;;;;;;;5108273;28;20674;-81
2022/09/30 00:24:06;;;;;;;28.03;25.00;;;;;;;;;;5112043;28;20217;-80
2022/09/30 00:26:35;;;;;;;26.57;23.77;;;;;;;;;;5115242;28;20198;-80
2022/09/30 00:29:04;;;;;;;25.60;22.83;;;;;;;;;;5115060;28;20874;-82
2022/09/30 00:31:34;;;;;;;26.90;24.07;;;;;;;;;;5099039;28;20210;-79
2022/09/30 00:34:07;;;;;;;25.03;22.40;;;;;;;;;;5095280;28;20317;-78
2022/09/30 00:36:38;;;;;;;23.57;20.93;;;;;;;;;;5094901;28;20202;-79
2022/09/30 00:39:08;;;;;;;23.40;20.97;;;;;;;;;;5095220;28;20256;-80
2022/09/30 00:41:37;;;;;;;22.97;20.67;;;;;;;;;;5095150;28;20218;-80
2022/09/30 00:44:20;;;;;;;22.97;20.67;;;;;;;;;;5095097;28;20211;-79
2022/09/30 00:46:48;;;;;;;22.10;19.80;;;;;;;;;;5093998;28;20203;-81
2022/09/30 00:49:21;;;;;;;24.83;21.37;;;;;;;;;;5094547;28;20199;-81
2022/09/30 00:51:52;;;;;;;25.00;22.30;;;;;;;;;;5094893;28;20834;-81
2022/09/30 00:54:22;;;;;;;25.43;22.57;;;;;;;;;;5094688;28;20215;-79
2022/09/30 00:56:53;;;;;;;23.40;20.93;;;;;;;;;;5094745;28;20219;-80
2022/09/30 00:59:24;;;;;;;24.90;22.30;;;;;;;;;;5094520;28;20210;-79
2022/09/30 01:01:52;;;;;;;22.80;20.40;;;;;;;;;;5095157;28;20202;-80
2022/09/30 01:04:23;;;;;;;23.13;20.80;;;;;;;;;;5095560;28;20645;-80
2022/09/30 01:06:55;;;;;;;24.67;21.90;;;;;;;;;;5113186;28;20200;-79
2022/09/30 01:09:24;;;;;;;25.73;23.13;;;;;;;;;;5095480;28;20669;-80
2022/09/30 01:11:53;;;;;;;25.30;22.43;;;;;;;;;;5095949;28;20297;-80
2022/09/30 01:14:24;;;;;;;24.40;21.90;;;;;;;;;;5095242;28;20700;-81
2022/09/30 01:17:00;;;;;;;23.03;20.73;;;;;;;;;;5094660;28;20199;-80
2022/09/30 01:19:42;;;;;;;23.27;20.87;;;;;;;;;;5104173;28;20241;-79
2022/09/30 01:22:17;;;;;;;25.53;20.97;;;;;;;;;;5092885;28;20230;-81
2022/09/30 01:25:10;;;;;;;23.23;20.40;;;;;;;;;;5093993;28;20767;-81
2022/09/30 01:27:46;;;;;;;24.13;20.77;;;;;;;;;;5093590;28;20203;-80
2022/09/30 01:30:16;;;;;;;22.97;20.57;;;;;;;;;;5093659;28;20218;-81
2022/09/30 01:33:04;;;;;;;23.30;20.87;;;;;;;;;;5093858;28;20223;-81
2022/09/30 01:35:39;;;;;;;23.60;21.17;;;;;;;;;;5093976;28;20199;-80
2022/09/30 01:38:13;;;;;;;23.80;21.37;;;;;;;;;;5093547;28;20197;-81
2022/09/30 01:40:45;;;;;;;24.77;21.97;;;;;;;;;;5093219;28;20214;-81
2022/09/30 01:43:16;;;;;;;23.87;21.27;;;;;;;;;;5094127;28;20199;-80
2022/09/30 01:45:47;;;;;;;25.80;21.80;;;;;;;;;;5094578;28;20198;-80
2022/09/30 01:48:20;;;;;;;23.70;21.40;;;;;;;;;;5094573;28;20202;-82
2022/09/30 01:50:54;;;;;;;24.50;21.87;;;;;;;;;;5094011;28;20757;-80
2022/09/30 01:53:25;;;;;;;26.90;22.40;;;;;;;;;;5094286;28;20215;-81
2022/09/30 01:55:56;;;;;;;24.50;22.03;;;;;;;;;;5093750;28;20724;-79
2022/09/30 01:58:28;;;;;;;25.80;22.70;;;;;;;;;;5093449;28;20652;-80
2022/09/30 02:01:00;;;;;;;25.93;23.13;;;;;;;;;;5093327;28;20210;-81
2022/09/30 02:03:32;;;;;;;26.13;23.33;;;;;;;;;;5093708;28;20272;-79
2022/09/30 02:06:03;;;;;;;31.10;23.93;;;;;;;;;;5093662;28;20202;-79
2022/09/30 02:08:33;;;;;;;29.63;23.87;;;;;;;;;;5092930;28;20706;-80
2022/09/30 02:11:05;;;;;;;27.90;24.90;;;;;;;;;;5093233;28;20207;-80
2022/09/30 02:13:37;;;;;;;28.00;24.87;;;;;;;;;;5093041;28;20207;-81
2022/09/30 02:16:11;;;;;;;29.20;25.20;;;;;;;;;;5094003;28;20581;-79
2022/09/30 02:18:43;;;;;;;28.50;25.33;;;;;;;;;;5093121;28;20201;-81
2022/09/30 02:21:13;;;;;;;29.93;25.97;;;;;;;;;;5093153;28;20213;-80
2022/09/30 02:23:45;;;;;;;29.27;24.37;;;;;;;;;;5092772;28;20261;-80
2022/09/30 02:26:15;;;;;;;31.27;24.50;;;;;;;;;;5093124;28;20194;-80
2022/09/30 02:28:47;;;;;;;26.90;23.57;;;;;;;;;;5092788;28;20210;-82
2022/09/30 02:31:17;;;;;;;28.57;24.40;;;;;;;;;;5096378;28;20210;-80
2022/09/30 02:33:49;;;;;;;26.97;23.87;;;;;;;;;;5110989;28;20253;-81
2022/09/30 02:36:19;;;;;;;27.23;24.33;;;;;;;;;;5113147;28;20217;-81
2022/09/30 02:38:51;;;;;;;26.20;22.77;;;;;;;;;;5113324;28;20186;-81
2022/09/30 02:41:20;;;;;;;24.93;22.33;;;;;;;;;;5098461;28;20215;-80
2022/09/30 02:43:49;;;;;;;26.07;23.37;;;;;;;;;;5092901;28;20210;-80
2022/09/30 02:46:23;;;;;;;27.27;24.17;;;;;;;;;;5091793;28;20854;-80
2022/09/30 02:48:58;;;;;;;26.03;22.97;;;;;;;;;;5091693;28;20630;-80
2022/09/30 02:51:31;;;;;;;28.33;25.43;;;;;;;;;;5092336;28;20203;-81
2022/09/30 02:54:06;;;;;;;30.37;25.30;;;;;;;;;;5092392;28;20294;-79
2022/09/30 02:56:40;;;;;;;28.87;25.77;;;;;;;;;;5099357;28;20206;-80
2022/09/30 02:59:08;;;;;;;31.93;26.60;;;;;;;;;;5112627;28;20195;-82
2022/09/30 03:01:40;;;;;;;30.60;27.30;;;;;;;;;;5112747;28;20203;-81
2022/09/30 03:04:11;;;;;;;31.40;27.07;;;;;;;;;;5112645;28;20190;-81
2022/09/30 03:06:40;;;;;;;34.50;26.07;;;;;;;;;;5101067;28;20210;-80
2022/09/30 03:09:09;;;;;;;29.00;25.93;;;;;;;;;;5092019;28;20218;-82
2022/09/30 03:11:38;;;;;;;30.10;25.37;;;;;;;;;;5092294;28;20211;-81
2022/09/30 03:14:17;;;;;;;28.27;25.07;;;;;;;;;;5092178;28;20238;-81
2022/09/30 03:17:03;;;;;;;30.17;25.63;;;;;;;;;;5091510;28;20589;-81
2022/09/30 03:19:41;;;;;;;29.10;25.53;;;;;;;;;;5092086;28;20195;-79
2022/09/30 03:22:20;;;;;;;29.83;25.27;;;;;;;;;;5091813;28;20288;-80
2022/09/30 03:25:03;;;;;;;27.87;24.90;;;;;;;;;;5108845;28;20198;-80
2022/09/30 03:27:36;;;;;;;28.20;25.20;;;;;;;;;;5109901;28;20210;-80
2022/09/30 03:30:06;;;;;;;29.20;25.07;;;;;;;;;;5112467;28;20197;-81
2022/09/30 03:32:40;;;;;;;30.47;25.67;;;;;;;;;;5109923;28;20266;-80
2022/09/30 03:35:17;;;;;;;31.80;25.43;;;;;;;;;;5092345;28;20211;-81
2022/09/30 03:37:48;;;;;;;27.93;24.40;;;;;;;;;;5092231;28;20230;-82
2022/09/30 03:40:18;;;;;;;28.73;25.53;;;;;;;;;;5091578;28;20210;-80
2022/09/30 03:42:48;;;;;;;30.10;25.50;;;;;;;;;;5092110;28;20229;-81
2022/09/30 03:45:19;;;;;;;28.67;25.57;;;;;;;;;;5105556;28;20209;-80
2022/09/30 03:47:49;;;;;;;28.80;25.30;;;;;;;;;;5102103;28;20213;-80
2022/09/30 03:50:20;;;;;;;29.03;25.93;;;;;;;;;;5112678;28;20213;-81
2022/09/30 03:52:49;;;;;;;29.33;25.17;;;;;;;;;;5112368;28;20214;-81
2022/09/30 03:55:21;;;;;;;32.50;26.53;;;;;;;;;;5110533;28;20233;-80
2022/09/30 03:57:50;;;;;;;31.60;27.00;;;;;;;;;;5094312;28;20203;-82
2022/09/30 04:00:18;;;;;;;30.47;25.83;;;;;;;;;;5096075;28;20206;-81
2022/09/30 04:02:47;;;;;;;33.47;27.13;;;;;;;;;;5096033;28;20203;-81
2022/09/30 04:05:16;;;;;;;31.27;25.07;;;;;;;;;;5097752;28;20252;-80
2022/09/30 04:07:46;;;;;;;30.93;26.93;;;;;;;;;;5095702;28;20297;-80
2022/09/30 04:10:15;;;;;;;33.37;26.20;;;;;;;;;;5096001;28;20228;-79
2022/09/30 04:12:43;;;;;;;29.53;25.73;;;;;;;;;;5099353;28;20656;-80
2022/09/30 04:15:11;;;;;;;32.50;26.70;;;;;;;;;;5116258;28;20229;-79
2022/09/30 04:17:40;;;;;;;29.03;25.87;;;;;;;;;;5115985;28;20214;-80
2022/09/30 04:20:09;;;;;;;28.40;25.27;;;;;;;;;;5099492;28;20722;-80
2022/09/30 04:22:37;;;;;;;28.80;25.77;;;;;;;;;;5115013;28;20731;-81
2022/09/30 04:25:07;;;;;;;32.50;26.17;;;;;;;;;;5115396;28;20548;-80
2022/09/30 04:27:36;;;;;;;32.57;26.37;;;;;;;;;;5115377;28;20202;-79
2022/09/30 04:30:05;;;;;;;30.03;26.13;;;;;;;;;;5109433;28;20210;-80
2022/09/30 04:32:33;;;;;;;30.80;25.53;;;;;;;;;;5115204;28;20208;-80
2022/09/30 04:35:01;;;;;;;28.83;25.73;;;;;;;;;;5109474;28;20695;-79
2022/09/30 04:37:30;;;;;;;28.57;24.17;;;;;;;;;;5110796;28;20720;-81
2022/09/30 04:39:59;;;;;;;26.27;23.47;;;;;;;;;;5115115;28;20210;-81
2022/09/30 04:42:28;;;;;;;27.57;23.57;;;;;;;;;;5115522;28;20210;-81
2022/09/30 04:44:57;;;;;;;23.73;21.23;;;;;;;;;;5115424;28;20214;-81
2022/09/30 04:47:26;;;;;;;26.60;23.53;;;;;;;;;;5096728;28;20211;-81
2022/09/30 04:49:57;;;;;;;30.60;23.20;;;;;;;;;;5101197;28;20214;-79
2022/09/30 04:52:25;;;;;;;25.97;23.17;;;;;;;;;;5113315;28;20271;-79
2022/09/30 04:54:54;;;;;;;26.27;22.73;;;;;;;;;;5115114;28;20572;-82
2022/09/30 04:57:22;;;;;;;27.53;23.53;;;;;;;;;;5094640;28;20603;-81
2022/09/30 04:59:52;;;;;;;25.77;22.57;;;;;;;;;;5094295;28;20632;-82
2022/09/30 05:02:20;;;;;;;28.33;21.47;;;;;;;;;;5094805;28;20244;-80
2022/09/30 05:04:49;;;;;;;26.10;21.87;;;;;;;;;;5094686;28;20605;-80
2022/09/30 05:07:19;;;;;;;25.77;22.20;;;;;;;;;;5098413;28;20942;-79
2022/09/30 05:09:47;;;;;;;26.03;22.27;;;;;;;;;;5105358;28;20211;-79
2022/09/30 05:12:16;;;;;;;27.07;22.73;;;;;;;;;;5094314;28;20207;-79
2022/09/30 05:14:44;;;;;;;24.60;22.07;;;;;;;;;;5094461;28;20226;-80
2022/09/30 05:17:14;;;;;;;25.07;21.93;;;;;;;;;;5093944;28;20213;-80
2022/09/30 05:19:42;;;;;;;23.97;21.47;;;;;;;;;;5109151;28;20667;-81
2022/09/30 05:22:12;;;;;;;25.67;21.60;;;;;;;;;;5114451;28;20645;-81
2022/09/30 05:24:41;;;;;;;28.47;22.43;;;;;;;;;;5106169;27;20215;-81
2022/09/30 05:27:09;;;;;;;24.30;21.67;;;;;;;;;;5102789;28;20683;-80
2022/09/30 05:29:37;;;;;;;24.53;21.90;;;;;;;;;;5098953;28;20304;-80
2022/09/30 05:32:06;;;;;;;23.60;21.07;;;;;;;;;;5100615;28;20765;-80
2022/09/30 05:34:37;;;;;;;25.07;22.37;;;;;;;;;;5093843;28;20203;-81
2022/09/30 05:37:07;;;;;;;25.40;21.80;;;;;;;;;;5094317;28;20569;-80
2022/09/30 05:39:35;;;;;;;27.37;23.83;;;;;;;;;;5093771;28;20207;-81
2022/09/30 05:42:04;;;;;;;26.30;23.57;;;;;;;;;;5097206;28;20680;-79
2022/09/30 05:44:32;;;;;;;29.63;24.83;;;;;;;;;;5096319;28;20849;-81
2022/09/30 05:47:01;;;;;;;27.60;24.70;;;;;;;;;;5114033;28;20616;-81
2022/09/30 05:49:29;;;;;;;28.37;25.20;;;;;;;;;;5093837;28;20215;-80
2022/09/30 05:51:59;;;;;;;27.57;24.57;;;;;;;;;;5094101;28;20206;-78
2022/09/30 05:54:27;;;;;;;28.90;25.80;;;;;;;;;;5094430;28;20211;-80
2022/09/30 05:57:00;;;;;;;29.03;24.27;;;;;;;;;;5093953;28;20574;-79
2022/09/30 05:59:29;;;;;;;27.77;24.87;;;;;;;;;;5094677;28;20278;-80
2022/09/30 06:01:57;;;;;;;28.33;25.33;;;;;;;;;;5100135;28;20217;-80
2022/09/30 06:04:26;;;;;;;26.40;23.60;;;;;;;;;;5114800;28;20209;-80
2022/09/30 06:06:54;;;;;;;26.20;23.50;;;;;;;;;;5116193;28;20202;-80
2022/09/30 06:09:24;;;;;;;27.47;24.00;;;;;;;;;;5132184;28;20210;-80
2022/09/30 06:11:57;;;;;;;26.87;23.97;;;;;;;;;;5131635;28;20212;-81
2022/09/30 06:14:27;;;;;;;26.63;24.03;;;;;;;;;;5124213;28;20196;-81
2022/09/30 06:16:55;;;;;;;26.30;23.67;;;;;;;;;;5122707;28;20237;-80
2022/09/30 06:19:26;;;;;;;18.73;16.83;;;;;;;;;;5104313;28;20653;-80
2022/09/30 06:21:55;;;;;;;13.60;12.30;;;;;;;;;;5102219;28;20235;-80
2022/09/30 06:24:25;;;;;;;16.57;14.87;;;;;;;;;;5110027;28;20202;-80
2022/09/30 06:26:53;;;;;;;16.47;14.87;;;;;;;;;;5108702;28;20205;-79
2022/09/30 06:29:21;;;;;;;16.67;14.93;;;;;;;;;;5096685;28;20630;-80
2022/09/30 06:31:50;;;;;;;17.17;15.37;;;;;;;;;;5093973;28;20268;-81
2022/09/30 06:34:19;;;;;;;16.60;14.83;;;;;;;;;;5101813;28;20210;-81
2022/09/30 06:36:47;;;;;;;14.27;12.97;;;;;;;;;;5112790;28;20243;-80
2022/09/30 06:39:15;;;;;;;13.83;12.27;;;;;;;;;;5113909;28;20210;-80
2022/09/30 06:41:46;;;;;;;13.43;12.20;;;;;;;;;;5114002;28;20210;-80
2022/09/30 06:44:15;;;;;;;14.13;12.80;;;;;;;;;;5106844;28;20199;-79
2022/09/30 06:46:44;;;;;;;14.43;12.40;;;;;;;;;;5105127;28;20563;-80
2022/09/30 06:49:21;;;;;;;15.00;13.50;;;;;;;;;;5113369;28;20206;-80
2022/09/30 06:51:51;;;;;;;15.27;13.77;;;;;;;;;;5113818;28;20297;-79
2022/09/30 06:54:20;;;;;;;13.67;12.37;;;;;;;;;;5112535;28;20210;-80
2022/09/30 06:56:51;;;;;;;13.57;12.37;;;;;;;;;;5120795;27;20252;-80
2022/09/30 06:59:20;;;;;;;14.40;13.00;;;;;;;;;;5110879;27;20210;-79
2022/09/30 07:01:48;;;;;;;13.73;12.33;;;;;;;;;;5103559;28;20214;-79
2022/09/30 07:04:16;;;;;;;14.97;13.47;;;;;;;;;;5112323;28;20217;-79
2022/09/30 07:06:45;;;;;;;13.07;11.87;;;;;;;;;;5102821;28;20296;-80
2022/09/30 07:09:13;;;;;;;12.83;11.63;;;;;;;;;;5091438;28;20210;-80
2022/09/30 07:11:42;;;;;;;12.30;11.20;;;;;;;;;;5091463;28;20245;-80
2022/09/30 07:14:12;;;;;;;13.93;10.23;;;;;;;;;;5106332;28;20331;-80
2022/09/30 07:16:43;;;;;;;10.27;9.20;;;;;;;;;;5112002;28;20217;-79
2022/09/30 07:19:13;;;;;;;10.37;9.37;;;;;;;;;;5091437;28;20203;-80
2022/09/30 07:21:42;;;;;;;9.70;8.80;;;;;;;;;;5097604;28;20283;-78
2022/09/30 07:24:10;;;;;;;10.30;9.07;;;;;;;;;;5104003;28;20223;-82
2022/09/30 07:26:39;;;;;;;12.73;10.60;;;;;;;;;;5104219;28;20207;-80
2022/09/30 07:29:07;;;;;;;11.50;10.33;;;;;;;;;;5092075;28;20207;-81
2022/09/30 07:31:38;;;;;;;10.93;9.83;;;;;;;;;;5090973;28;20218;-80
2022/09/30 07:34:08;;;;;;;9.33;8.43;;;;;;;;;;5092275;28;20213;-80
2022/09/30 07:36:37;;;;;;;9.37;8.47;;;;;;;;;;5091421;28;20253;-81
2022/09/30 07:39:06;;;;;;;10.40;8.90;;;;;;;;;;5091312;28;20214;-78
2022/09/30 07:41:36;;;;;;;9.50;8.50;;;;;;;;;;5092419;28;20206;-79
2022/09/30 07:44:06;;;;;;;8.63;7.73;;;;;;;;;;5097662;28;20210;-80
2022/09/30 07:46:37;;;;;;;10.70;9.33;;;;;;;;;;5112211;28;20289;-79
2022/09/30 07:49:09;;;;;;;8.30;7.50;;;;;;;;;;5099207;28;20758;-78
2022/09/30 07:51:39;;;;;;;8.80;7.70;;;;;;;;;;5105009;28;20243;-79
2022/09/30 07:54:08;;;;;;;10.17;8.53;;;;;;;;;;5101080;28;20206;-79
2022/09/30 07:56:42;;;;;;;10.00;9.00;;;;;;;;;;5111686;28;20233;-79
2022/09/30 07:59:31;;;;;;;12.27;10.30;;;;;;;;;;5093093;28;20210;-79
2022/09/30 08:02:00;;;;;;;12.77;11.43;;;;;;;;;;5115131;28;20214;-79
2022/09/30 08:04:30;;;;;;;12.60;11.30;;;;;;;;;;5111326;28;20198;-79
2022/09/30 08:07:00;;;;;;;10.80;9.63;;;;;;;;;;5096795;28;20214;-79
2022/09/30 08:09:29;;;;;;;10.17;9.27;;;;;;;;;;5091949;28;20289;-79
2022/09/30 08:11:58;;;;;;;10.77;9.00;;;;;;;;;;5091336;28;20210;-78
2022/09/30 08:14:27;;;;;;;10.33;9.37;;;;;;;;;;5092059;28;20210;-79
2022/09/30 08:16:59;;;;;;;10.50;9.60;;;;;;;;;;5111786;28;20222;-80
2022/09/30 08:19:32;;;;;;;11.43;9.60;;;;;;;;;;5110883;28;20194;-80
2022/09/30 08:22:02;;;;;;;8.43;7.63;;;;;;;;;;5108039;28;20226;-79
2022/09/30 08:24:30;;;;;;;7.80;7.00;;;;;;;;;;5111613;28;20218;-78
2022/09/30 08:26:59;;;;;;;8.50;7.70;;;;;;;;;;5112045;28;20205;-79
2022/09/30 08:29:27;;;;;;;7.60;6.90;;;;;;;;;;5111615;28;20263;-80
2022/09/30 08:32:16;;;;;;;8.03;7.23;;;;;;;;;;5097403;28;20664;-79
2022/09/30 08:34:44;;;;;;;8.90;8.00;;;;;;;;;;5091197;28;20286;-80
2022/09/30 08:37:14;;;;;;;12.17;10.83;;;;;;;;;;5091382;28;20235;-78
2022/09/30 08:39:43;;;;;;;12.73;8.90;;;;;;;;;;5090868;28;20222;-80
2022/09/30 08:42:19;;;;;;;8.50;7.60;;;;;;;;;;5091015;28;20211;-80
2022/09/30 08:45:10;;;;;;;9.27;8.37;;;;;;;;;;5108176;28;20199;-79
2022/09/30 08:47:44;;;;;;;8.10;7.30;;;;;;;;;;5106144;28;20205;-81
2022/09/30 08:50:16;;;;;;;9.60;6.80;;;;;;;;;;5094442;28;20192;-79
2022/09/30 08:52:48;;;;;;;8.07;7.17;;;;;;;;;;5094152;28;20191;-79
2022/09/30 08:55:24;;;;;;;6.93;6.23;;;;;;;;;;5094429;28;20233;-80
2022/09/30 08:57:54;;;;;;;7.73;6.00;;;;;;;;;;5094090;28;20226;-80
2022/09/30 09:00:23;;;;;;;6.80;5.50;;;;;;;;;;5094015;28;20207;-80
2022/09/30 09:02:53;;;;;;;6.20;4.90;;;;;;;;;;5094518;28;20207;-79
2022/09/30 09:05:29;;;;;;;8.13;5.47;;;;;;;;;;5094565;28;20211;-80
2022/09/30 09:08:03;;;;;;;6.67;5.13;;;;;;;;;;5093856;28;20211;-80
2022/09/30 09:10:37;;;;;;;4.97;4.47;;;;;;;;;;5109033;28;20289;-80
2022/09/30 09:13:08;;;;;;;6.10;4.57;;;;;;;;;;5109470;28;20219;-80
2022/09/30 09:15:49;;;;;;;5.17;4.50;;;;;;;;;;5094057;28;20230;-79
2022/09/30 09:18:30;;;;;;;4.60;3.43;;;;;;;;;;5094312;28;20227;-80
2022/09/30 09:20:59;;;;;;;4.57;2.80;;;;;;;;;;5113338;28;20224;-80
2022/09/30 09:23:30;;;;;;;3.43;2.87;;;;;;;;;;5101913;28;20637;-80
2022/09/30 09:25:58;;;;;;;3.77;2.80;;;;;;;;;;5113672;28;21023;-79
2022/09/30 09:28:35;;;;;;;3.03;2.70;;;;;;;;;;5114316;28;20566;-80
2022/09/30 09:31:04;;;;;;;4.97;2.90;;;;;;;;;;5097089;28;20244;-80
2022/09/30 09:33:35;;;;;;;3.17;2.50;;;;;;;;;;5093731;28;20500;-78
2022/09/30 09:36:13;;;;;;;2.80;2.40;;;;;;;;;;5094521;28;20680;-79
2022/09/30 09:38:50;;;;;;;4.27;2.73;;;;;;;;;;5093685;28;20231;-82
2022/09/30 09:41:26;;;;;;;5.30;3.40;;;;;;;;;;5094158;28;20237;-79
2022/09/30 09:43:59;;;;;;;5.70;3.67;;;;;;;;;;5107995;28;20195;-80
2022/09/30 09:46:30;;;;;;;4.30;3.10;;;;;;;;;;5113279;28;20201;-78
2022/09/30 09:49:19;;;;;;;13.43;3.47;;;;;;;;;;5103135;28;20218;-80
2022/09/30 09:51:48;;;;;;;4.30;3.63;;;;;;;;;;5093606;28;20213;-80
2022/09/30 09:54:21;;;;;;;6.00;3.50;;;;;;;;;;5094164;28;20191;-79
2022/09/30 09:56:51;;;;;;;5.47;4.00;;;;;;;;;;5096133;28;20293;-79
2022/09/30 09:59:20;;;;;;;5.93;4.07;;;;;;;;;;5097135;28;20203;-80
2022/09/30 10:01:50;;;;;;;3.67;3.20;;;;;;;;;;5113403;28;20194;-80
2022/09/30 10:04:22;;;;;;;4.23;3.60;;;;;;;;;;5114322;28;20206;-79
2022/09/30 10:06:53;;;;;;;3.90;3.40;;;;;;;;;;5112580;28;20202;-79
2022/09/30 10:09:33;;;;;;;5.23;3.67;;;;;;;;;;5115312;28;20205;-78
2022/09/30 10:12:19;;;;;;;7.30;3.93;;;;;;;;;;5125329;28;20216;-78
2022/09/30 10:14:50;;;;;;;3.97;3.57;;;;;;;;;;5122431;28;20212;-79
2022/09/30 10:17:19;;;;;;;5.77;3.50;;;;;;;;;;5125610;28;20190;-80
2022/09/30 10:19:50;;;;;;;4.13;3.20;;;;;;;;;;5133976;28;20202;-79
2022/09/30 10:22:19;;;;;;;3.63;3.33;;;;;;;;;;5133816;28;20224;-78
2022/09/30 10:24:49;;;;;;;3.83;3.43;;;;;;;;;;5114059;28;20231;-79
2022/09/30 10:27:31;;;;;;;4.73;3.43;;;;;;;;;;5096178;28;20215;-79
2022/09/30 10:29:59;;;;;;;2.97;2.77;;;;;;;;;;5106067;28;20307;-80
2022/09/30 10:32:28;;;;;;;3.47;3.17;;;;;;;;;;5095035;28;20207;-79
2022/09/30 10:35:02;;;;;;;4.73;3.50;;;;;;;;;;5112347;28;20241;-79
2022/09/30 10:37:31;;;;;;;4.03;3.40;;;;;;;;;;5112505;28;20230;-79
2022/09/30 10:40:03;;;;;;;4.67;3.67;;;;;;;;;;5111887;28;20694;-78
2022/09/30 10:42:32;;;;;;;3.50;3.20;;;;;;;;;;5109717;28;20206;-77
2022/09/30 10:45:02;;;;;;;4.33;3.37;;;;;;;;;;5105514;28;20198;-78
2022/09/30 10:47:31;;;;;;;6.47;3.80;;;;;;;;;;5102161;28;20206;-78
2022/09/30 10:50:06;;;;;;;5.27;3.90;;;;;;;;;;5112642;28;20194;-79
2022/09/30 10:52:36;;;;;;;4.30;3.90;;;;;;;;;;5112583;28;20205;-79
2022/09/30 10:55:07;;;;;;;4.67;4.00;;;;;;;;;;5112908;28;20201;-78
2022/09/30 10:57:44;;;;;;;5.03;4.53;;;;;;;;;;5112398;28;20229;-79
2022/09/30 11:00:16;;;;;;;4.97;4.40;;;;;;;;;;5112507;28;20209;-78
2022/09/30 11:02:46;;;;;;;5.23;4.10;;;;;;;;;;5112525;28;20194;-78
2022/09/30 11:05:23;;;;;;;5.57;4.30;;;;;;;;;;5097372;28;20664;-79
2022/09/30 11:07:54;;;;;;;5.43;4.50;;;;;;;;;;5091793;28;20517;-79
2022/09/30 11:10:29;;;;;;;5.50;4.83;;;;;;;;;;5092594;28;20518;-77
2022/09/30 11:13:01;;;;;;;5.57;4.33;;;;;;;;;;5092609;28;20215;-77
2022/09/30 11:15:31;;;;;;;4.73;4.23;;;;;;;;;;5100379;28;20630;-78
2022/09/30 11:18:01;;;;;;;4.97;4.50;;;;;;;;;;5095184;28;20227;-77
2022/09/30 11:20:32;;;;;;;4.63;4.10;;;;;;;;;;5091987;28;20218;-78
2022/09/30 11:23:02;;;;;;;8.87;5.57;;;;;;;;;;5095191;28;20230;-77
2022/09/30 11:25:39;;;;;;;5.00;4.40;;;;;;;;;;5075184;28;20214;-76
2022/09/30 11:28:14;;;;;;;5.10;4.60;;;;;;;;;;5096776;28;20193;-78
2022/09/30 11:30:46;;;;;;;4.67;4.17;;;;;;;;;;5100632;28;20210;-78
2022/09/30 11:33:21;;;;;;;5.20;4.43;;;;;;;;;;5094515;28;20206;-77
2022/09/30 11:35:54;;;;;;;4.63;4.00;;;;;;;;;;5091967;28;20214;-78
2022/09/30 11:38:35;;;;;;;5.70;3.93;;;;;;;;;;5106058;28;20252;-79
2022/09/30 11:41:08;;;;;;;4.57;3.07;;;;;;;;;;5099461;28;20210;-79
2022/09/30 11:43:43;;;;;;;4.00;3.60;;;;;;;;;;5111501;28;20198;-78
2022/09/30 11:46:18;;;;;;;5.53;3.30;;;;;;;;;;5096532;28;20195;-78
2022/09/30 11:48:54;;;;;;;3.67;3.00;;;;;;;;;;5111338;28;20278;-79
2022/09/30 11:51:28;;;;;;;3.20;2.70;;;;;;;;;;5111556;28;20211;-78
2022/09/30 11:54:03;;;;;;;4.20;2.80;;;;;;;;;;5107077;28;20636;-77
2022/09/30 11:56:46;;;;;;;4.47;3.10;;;;;;;;;;5101524;28;20197;-79
2022/09/30 11:59:17;;;;;;;5.07;3.30;;;;;;;;;;5103313;28;20214;-77
2022/09/30 12:01:46;;;;;;;4.53;3.23;;;;;;;;;;5111022;28;20212;-78
2022/09/30 12:04:17;;;;;;;4.43;3.33;;;;;;;;;;5111700;28;20297;-78
2022/09/30 12:06:50;;;;;;;3.33;3.00;;;;;;;;;;5102375;28;20210;-77
2022/09/30 12:09:20;;;;;;;3.73;2.97;;;;;;;;;;5090781;28;20195;-77
2022/09/30 12:11:52;;;;;;;4.10;2.77;;;;;;;;;;5100576;28;20209;-78
2022/09/30 12:14:24;;;;;;;3.43;2.60;;;;;;;;;;5106478;28;20357;-78
2022/09/30 12:16:52;;;;;;;2.40;2.20;;;;;;;;;;5111054;28;20203;-79
2022/09/30 12:19:22;;;;;;;2.90;2.10;;;;;;;;;;5095485;28;20226;-78
2022/09/30 12:21:56;;;;;;;2.07;1.90;;;;;;;;;;5095233;28;20559;-78
2022/09/30 12:24:28;;;;;;;3.67;2.30;;;;;;;;;;5094474;28;20236;-77
2022/09/30 12:26:58;;;;;;;4.77;3.20;;;;;;;;;;5095490;28;20198;-76
2022/09/30 12:32:28;;;;;;;5.60;3.20;;;;;;;;;;5107299;27;20205;-78
2022/09/30 12:35:03;;;;;;;2.70;2.40;;;;;;;;;;5102589;28;20685;-76
2022/09/30 12:37:41;;;;;;;2.50;2.30;;;;;;;;;;5120466;27;20208;-77
2022/09/30 12:40:26;;;;;;;2.67;2.40;;;;;;;;;;5095672;28;20222;-78
2022/09/30 12:43:11;;;;;;;3.27;2.20;;;;;;;;;;5117911;27;20201;-79
2022/09/30 12:46:00;;;;;;;2.47;1.97;;;;;;;;;;5094907;28;20218;-77
2022/09/30 12:48:33;;;;;;;2.53;1.60;;;;;;;;;;5095297;28;20260;-77
2022/09/30 12:51:01;;;;;;;1.70;1.60;;;;;;;;;;5094290;28;20191;-78
2022/09/30 12:53:31;;;;;;;2.57;1.63;;;;;;;;;;5094808;28;20715;-79
2022/09/30 12:56:04;;;;;;;3.00;2.20;;;;;;;;;;5093815;28;20566;-77
2022/09/30 12:58:35;;;;;;;2.27;1.73;;;;;;;;;;5098065;28;20237;-78
2022/09/30 13:01:06;;;;;;;1.50;1.40;;;;;;;;;;5112014;28;20211;-77
2022/09/30 13:03:49;;;;;;;2.27;1.90;;;;;;;;;;5095281;28;20256;-78
2022/09/30 13:06:18;;;;;;;2.27;1.50;;;;;;;;;;5094644;28;20582;-78
2022/09/30 13:08:49;;;;;;;2.33;1.73;;;;;;;;;;5093154;28;20202;-79
2022/09/30 13:11:39;;;;;;;2.53;1.70;;;;;;;;;;5094225;28;20210;-78
2022/09/30 13:14:17;;;;;;;2.00;1.50;;;;;;;;;;5089611;28;20211;-78
2022/09/30 13:17:13;;;;;;;2.40;1.57;;;;;;;;;;5094613;28;20862;-77
2022/09/30 13:19:43;;;;;;;2.83;1.50;;;;;;;;;;5088303;28;20755;-78
2022/09/30 13:22:30;;;;;;;2.80;1.53;;;;;;;;;;5094954;28;20286;-78
2022/09/30 13:25:11;;;;;;;2.30;1.77;;;;;;;;;;5100201;28;20238;-77
2022/09/30 13:27:41;;;;;;;2.37;1.60;;;;;;;;;;5097765;28;20289;-77
2022/09/30 13:30:24;;;;;;;2.13;1.70;;;;;;;;;;5092793;28;20199;-78
2022/09/30 13:33:07;;;;;;;1.80;1.70;;;;;;;;;;5093323;28;20207;-76
2022/09/30 13:35:37;;;;;;;2.23;1.67;;;;;;;;;;5093765;28;20573;-79
2022/09/30 13:38:17;;;;;;;2.03;1.83;;;;;;;;;;5114442;28;20209;-78
2022/09/30 13:40:48;;;;;;;2.60;2.00;;;;;;;;;;5112465;28;20214;-77
2022/09/30 13:43:37;;;;;;;2.07;1.87;;;;;;;;;;5093935;28;20282;-75
2022/09/30 13:46:07;;;;;;;3.30;1.80;;;;;;;;;;5094408;28;20198;-76
2022/09/30 13:48:40;;;;;;;3.90;1.80;;;;;;;;;;5094162;28;20226;-76
2022/09/30 13:51:13;;;;;;;3.40;2.00;;;;;;;;;;5093806;28;20873;-77
2022/09/30 13:53:44;;;;;;;3.57;2.20;;;;;;;;;;5108573;28;20203;-77
2022/09/30 13:56:18;;;;;;;3.97;2.27;;;;;;;;;;5114334;28;20218;-77
2022/09/30 13:59:05;;;;;;;2.30;2.10;;;;;;;;;;5104842;28;20251;-78
2022/09/30 14:01:52;;;;;;;3.13;2.20;;;;;;;;;;5093782;28;20193;-76
2022/09/30 14:04:35;;;;;;;2.57;2.27;;;;;;;;;;5093855;28;20384;-78
2022/09/30 14:07:10;;;;;;;3.53;2.07;;;;;;;;;;5091480;28;20214;-78
2022/09/30 14:09:42;;;;;;;2.23;1.80;;;;;;;;;;5093959;28;20187;-78
2022/09/30 14:12:22;;;;;;;2.63;2.10;;;;;;;;;;5093258;28;20214;-77
2022/09/30 14:15:12;;;;;;;2.53;1.97;;;;;;;;;;5093392;28;20198;-76
2022/09/30 14:17:51;;;;;;;3.83;2.13;;;;;;;;;;5093228;28;20209;-76
2022/09/30 14:20:27;;;;;;;3.67;2.90;;;;;;;;;;5093167;28;20225;-77
2022/09/30 14:22:58;;;;;;;2.87;2.43;;;;;;;;;;5093031;28;20218;-77
2022/09/30 14:25:26;;;;;;;2.90;2.20;;;;;;;;;;5093731;28;20190;-77
2022/09/30 14:27:59;;;;;;;3.53;1.90;;;;;;;;;;5093259;28;20671;-77
2022/09/30 14:30:28;;;;;;;2.10;1.90;;;;;;;;;;5093067;28;20202;-77
2022/09/30 14:32:57;;;;;;;3.53;2.00;;;;;;;;;;5097765;28;20309;-75
2022/09/30 14:35:28;;;;;;;2.40;1.80;;;;;;;;;;5105860;28;20279;-76
2022/09/30 14:38:00;;;;;;;2.37;1.90;;;;;;;;;;5101426;28;20226;-78
2022/09/30 14:40:30;;;;;;;4.60;2.97;;;;;;;;;;5095081;28;20225;-77
2022/09/30 14:43:01;;;;;;;4.33;2.77;;;;;;;;;;5111510;28;20380;-76
2022/09/30 14:45:30;;;;;;;2.97;1.90;;;;;;;;;;5112488;28;20203;-75
2022/09/30 14:48:02;;;;;;;5.47;2.70;;;;;;;;;;5098555;28;20219;-77
2022/09/30 14:50:35;;;;;;;2.70;2.30;;;;;;;;;;5097779;28;20753;-77
2022/09/30 14:53:05;;;;;;;6.90;4.13;;;;;;;;;;5112989;28;20230;-77
2022/09/30 14:55:36;;;;;;;3.20;2.30;;;;;;;;;;5103175;28;20221;-76
2022/09/30 14:58:27;;;;;;;2.57;1.70;;;;;;;;;;5105979;28;20222;-77
2022/09/30 15:01:00;;;;;;;2.80;2.50;;;;;;;;;;5117400;28;20694;-76